Time;durP1;ratioP1;P1;durP2;ratioP2;P2;SDS_P1;SDS_P2;PMS_P1;PMS_P2;Temp;Humidity;BMP_temperature;BMP_pressure;BME280_temperature;BME280_humidity;BME280_pressure;Samples;Min_cycle;Max_cycle;Signal;HPM_P1;HPM_P2
2022/12/23 00:00:19;;;;;;;10.48;2.53;;;;;;;10.51;82.89;99563.41;4171252;28;20047;-68
2022/12/23 00:02:22;;;;;;;7.25;2.45;;;;;;;10.54;83.39;99542.63;4168905;28;20044;-70
2022/12/23 00:04:27;;;;;;;12.30;2.47;;;;;;;10.56;82.64;99553.88;4177283;28;20131;-68
2022/12/23 00:06:30;;;;;;;11.82;2.58;;;;;;;10.50;82.89;99558.19;4175943;28;20570;-68
2022/12/23 00:08:34;;;;;;;5.47;1.88;;;;;;;10.51;83.00;99552.16;4180686;28;20041;-68
2022/12/23 00:10:38;;;;;;;8.40;2.13;;;;;;;10.48;83.01;99543.50;4179399;28;20041;-68
2022/12/23 00:15:07;;;;;;;9.85;2.45;;;;;;;10.46;83.62;99547.81;4173843;28;20040;-68
2022/12/23 00:17:10;;;;;;;8.32;2.25;;;;;;;10.42;83.32;99546.06;4180903;28;20033;-68
2022/12/23 00:19:24;;;;;;;9.88;2.40;;;;;;;10.48;83.86;99550.41;4169191;28;20059;-68
2022/12/23 00:21:28;;;;;;;7.50;1.88;;;;;;;10.54;83.96;99545.22;4163740;28;20435;-68
2022/12/23 00:23:32;;;;;;;10.63;1.98;;;;;;;10.56;83.74;99545.22;4177845;28;20033;-68
2022/12/23 00:25:43;;;;;;;9.50;2.47;;;;;;;10.55;83.23;99538.28;4180619;28;20045;-68
2022/12/23 00:28:00;;;;;;;8.10;2.10;;;;;;;10.55;83.54;99538.28;4180642;28;20102;-68
2022/12/23 00:30:04;;;;;;;7.63;2.13;;;;;;;10.51;83.22;99531.34;4180654;28;20041;-68
2022/12/23 00:32:07;;;;;;;8.20;2.30;;;;;;;10.47;84.16;99531.38;4172405;28;20091;-68
2022/12/23 00:34:11;;;;;;;9.55;2.42;;;;;;;10.54;83.49;99536.53;4180066;28;20087;-68
2022/12/23 00:36:18;;;;;;;7.82;1.95;;;;;;;10.52;83.51;99541.75;4180677;28;20053;-68
2022/12/23 00:43:01;;;;;;;4.10;2.63;;;;;;;10.47;83.67;99546.94;4173832;28;20041;-68
2022/12/23 00:45:15;;;;;;;13.82;2.30;;;;;;;10.45;83.60;99546.09;4178751;28;20044;-68
2022/12/23 00:49:43;;;;;;;5.15;1.67;;;;;;;10.51;84.13;99547.81;4180286;28;20049;-68
2022/12/23 00:51:46;;;;;;;6.38;1.50;;;;;;;10.53;83.58;99556.47;4171651;28;20037;-68
2022/12/23 00:53:50;;;;;;;6.00;1.75;;;;;;;10.50;83.38;99550.41;4169910;28;20120;-68
2022/12/23 00:55:53;;;;;;;5.63;1.58;;;;;;;10.51;84.15;99554.75;4164355;28;20042;-68
2022/12/23 00:57:56;;;;;;;3.65;1.65;;;;;;;10.48;83.70;99563.41;4179470;28;20068;-68
2022/12/23 00:59:59;;;;;;;7.30;1.80;;;;;;;10.50;83.63;99561.69;4179524;28;20474;-68
2022/12/23 01:06:44;;;;;;;9.27;1.75;;;;;;;10.45;83.32;99572.09;4156109;28;20247;-68
2022/12/23 01:08:47;;;;;;;7.50;1.88;;;;;;;10.47;83.77;99566.88;4183050;28;20045;-68
2022/12/23 01:10:51;;;;;;;3.92;1.55;;;;;;;10.56;83.83;99566.03;4182759;28;20037;-68
2022/12/23 01:12:54;;;;;;;6.72;2.10;;;;;;;10.47;84.29;99572.09;4175582;28;20127;-68
2022/12/23 01:14:57;;;;;;;6.68;2.60;;;;;;;10.50;84.46;99572.09;4181339;28;20063;-68
2022/12/23 01:17:00;;;;;;;7.90;1.65;;;;;;;10.53;84.23;99563.41;4171887;28;20045;-68
2022/12/23 01:19:03;;;;;;;6.13;1.75;;;;;;;10.55;83.94;99579.88;4173129;28;20033;-68
2022/12/23 01:21:08;;;;;;;4.50;1.40;;;;;;;10.53;84.63;99577.28;4174183;28;20053;-68
2022/12/23 01:23:10;;;;;;;;;;;;;;;10.47;83.89;99591.13;4178964;28;20403;-68
2022/12/23 01:25:13;;;;;;;3.05;1.52;;;;;;;10.48;84.47;99585.06;4176283;28;19920;-68
2022/12/23 01:27:18;;;;;;;6.13;2.10;;;;;;;10.52;84.47;99587.66;4181731;28;20437;-68
2022/12/23 01:29:20;;;;;;;5.00;2.08;;;;;;;10.49;83.98;99585.94;4170514;28;20041;-68
2022/12/23 01:31:25;;;;;;;4.53;1.33;;;;;;;10.51;85.07;99596.31;4168346;28;20048;-68
2022/12/23 01:33:28;;;;;;;3.38;1.20;;;;;;;10.54;84.58;99604.13;4178839;28;20037;-68
2022/12/23 01:35:31;;;;;;;3.28;1.40;;;;;;;10.52;84.47;99611.06;4175901;28;20432;-68
2022/12/23 01:37:34;;;;;;;4.78;1.50;;;;;;;10.54;84.47;99617.13;4176742;28;20545;-68
2022/12/23 01:39:36;;;;;;;4.57;1.55;;;;;;;10.62;84.02;99628.38;4177616;28;20079;-68
2022/12/23 01:44:52;;;;;;;4.95;1.58;;;;;;;10.58;84.43;99635.31;4170342;28;20124;-68
2022/12/23 01:46:55;;;;;;;7.15;2.00;;;;;;;10.62;84.47;99628.38;4182037;28;20133;-68
2022/12/23 01:48:58;;;;;;;2.83;1.08;;;;;;;10.60;84.76;99637.91;4168160;28;20578;-68
2022/12/23 01:51:05;;;;;;;3.65;1.20;;;;;;;10.57;84.47;99635.31;4167759;28;20134;-68
2022/12/23 01:53:12;;;;;;;6.30;1.80;;;;;;;10.59;84.36;99644.00;4176477;28;20041;-68
2022/12/23 01:55:18;;;;;;;6.47;1.95;;;;;;;10.62;84.58;99649.19;4177883;28;20030;-68
2022/12/23 01:57:22;;;;;;;4.00;1.63;;;;;;;10.68;84.21;99643.97;4177380;28;20098;-69
2022/12/23 02:04:06;;;;;;;5.40;1.55;;;;;;;10.69;84.67;99653.53;4174878;28;20175;-68
2022/12/23 02:11:14;;;;;;;3.47;1.42;;;;;;;10.67;84.57;99655.25;4167652;28;20320;-68
2022/12/23 02:13:26;;;;;;;5.18;1.55;;;;;;;10.69;84.81;99656.13;4168690;28;20033;-68
2022/12/23 02:18:17;;;;;;;4.65;1.77;;;;;;;10.79;84.74;99670.88;4123383;28;20112;-68
2022/12/23 02:20:43;;;;;;;5.10;1.27;;;;;;;10.78;83.90;99668.25;4165646;28;20045;-68
2022/12/23 02:23:07;;;;;;;5.10;1.70;;;;;;;10.77;84.17;99661.31;4178521;28;20095;-68
2022/12/23 02:25:35;;;;;;;3.50;1.58;;;;;;;10.78;84.71;99676.06;4165833;28;20049;-68
2022/12/23 02:27:55;;;;;;;5.22;1.67;;;;;;;10.78;83.85;99684.72;4170718;28;20037;-68
2022/12/23 02:30:31;;;;;;;5.30;1.75;;;;;;;10.81;83.60;99682.13;4171617;28;20056;-68
2022/12/23 02:32:44;;;;;;;3.13;1.65;;;;;;;10.83;83.68;99689.91;4172270;28;20056;-68
2022/12/23 02:34:54;;;;;;;3.47;1.30;;;;;;;10.80;84.39;99695.97;4181571;28;20044;-68
2022/12/23 02:37:03;;;;;;;2.53;1.15;;;;;;;10.80;84.59;99701.16;4180194;28;20136;-68
2022/12/23 02:39:09;;;;;;;1.70;1.10;;;;;;;10.86;84.43;99705.50;4181914;28;20102;-68
2022/12/23 02:41:18;;;;;;;4.28;1.55;;;;;;;10.88;84.15;99708.13;4172746;28;20042;-68
2022/12/23 02:43:29;;;;;;;5.13;1.60;;;;;;;10.86;84.58;99708.13;4181236;28;20064;-69
2022/12/23 02:45:38;;;;;;;3.53;1.70;;;;;;;10.85;84.00;99705.50;4165704;28;20037;-69
2022/12/23 02:47:47;;;;;;;2.55;1.30;;;;;;;10.86;84.84;99709.84;4179470;28;20029;-69
2022/12/23 02:49:54;;;;;;;3.15;1.50;;;;;;;10.87;84.06;99717.66;4180478;28;20544;-68
2022/12/23 02:51:59;;;;;;;3.45;1.52;;;;;;;10.87;84.21;99715.06;4171421;28;20454;-69
2022/12/23 02:54:05;;;;;;;2.47;1.15;;;;;;;10.88;84.71;99724.59;4180317;28;20356;-69
2022/12/23 02:56:10;;;;;;;3.20;1.58;;;;;;;10.87;84.07;99727.19;4181964;28;20055;-69
2022/12/23 02:58:17;;;;;;;4.60;1.45;;;;;;;10.89;84.18;99728.06;4176261;28;20549;-68
2022/12/23 03:00:21;;;;;;;5.22;1.75;;;;;;;10.92;84.15;99728.06;4182182;28;20334;-68
2022/12/23 03:02:25;;;;;;;3.83;1.60;;;;;;;10.94;83.56;99735.00;4181891;28;20037;-68
2022/12/23 03:04:28;;;;;;;3.60;1.58;;;;;;;10.92;83.73;99735.84;4181445;28;20041;-68
2022/12/23 03:06:37;;;;;;;4.18;1.58;;;;;;;10.89;83.96;99743.66;4176443;28;20041;-68
2022/12/23 03:08:44;;;;;;;4.63;1.73;;;;;;;10.85;83.89;99744.53;4179101;28;20489;-68
2022/12/23 03:11:12;;;;;;;6.43;2.00;;;;;;;10.90;84.00;99748.88;4181687;28;20037;-68
2022/12/23 03:13:27;;;;;;;4.57;1.60;;;;;;;10.89;83.80;99748.88;4181453;28;20083;-68
2022/12/23 03:15:38;;;;;;;2.97;1.20;;;;;;;10.82;84.17;99751.47;4181573;28;20091;-68
2022/12/23 03:18:00;;;;;;;4.95;1.90;;;;;;;10.84;83.63;99759.25;4173712;28;20041;-68
2022/12/23 03:20:11;;;;;;;4.88;1.65;;;;;;;10.89;82.91;99751.47;4181546;28;20041;-68
2022/12/23 03:22:23;;;;;;;4.25;1.33;;;;;;;10.82;83.53;99761.88;4180718;28;20131;-68
2022/12/23 03:24:35;;;;;;;3.95;2.15;;;;;;;10.81;83.41;99756.66;4167382;28;20064;-69
2022/12/23 03:26:45;;;;;;;4.55;2.00;;;;;;;10.78;84.19;99752.31;4164615;28;20045;-68
2022/12/23 03:28:54;;;;;;;4.38;1.83;;;;;;;10.76;83.60;99764.47;4172592;28;20038;-68
2022/12/23 03:31:00;;;;;;;5.13;1.60;;;;;;;10.73;84.02;99771.38;4157870;28;20049;-68
2022/12/23 03:33:11;;;;;;;5.50;2.22;;;;;;;10.76;83.92;99772.25;4171104;28;20581;-68
2022/12/23 03:35:17;;;;;;;3.80;1.38;;;;;;;10.76;84.44;99776.56;4196358;28;20517;-68
2022/12/23 03:37:24;;;;;;;4.05;1.75;;;;;;;10.77;83.73;99784.38;4167943;28;20057;-68
2022/12/23 03:39:41;;;;;;;5.03;2.13;;;;;;;10.81;83.93;99783.50;4169437;28;20041;-68
2022/12/23 03:41:50;;;;;;;5.15;2.53;;;;;;;10.86;83.70;99793.06;4175061;28;20062;-68
2022/12/23 03:44:00;;;;;;;5.40;1.95;;;;;;;10.85;83.43;99789.63;4172066;28;20048;-68
2022/12/23 03:46:08;;;;;;;6.20;2.35;;;;;;;10.83;84.14;99793.91;4178142;28;20033;-69
2022/12/23 03:48:19;;;;;;;3.00;1.30;;;;;;;10.83;84.20;99797.41;4179081;28;20036;-68
2022/12/23 03:50:24;;;;;;;2.33;1.20;;;;;;;10.86;84.42;99798.28;4180421;28;20041;-68
2022/12/23 03:52:32;;;;;;;5.30;1.20;;;;;;;10.90;83.69;99797.41;4171308;28;20077;-68
2022/12/23 03:54:40;;;;;;;2.38;1.55;;;;;;;10.89;83.76;99804.31;4165641;28;20060;-68
2022/12/23 03:56:47;;;;;;;2.40;0.85;;;;;;;10.91;84.01;99801.75;4172810;28;20036;-68
2022/12/23 03:58:56;;;;;;;1.88;0.90;;;;;;;10.94;83.78;99792.22;4172800;28;20077;-69
2022/12/23 04:01:07;;;;;;;1.00;0.90;;;;;;;10.94;83.85;99801.75;4169269;28;20087;-69
2022/12/23 04:03:19;;;;;;;3.72;1.20;;;;;;;10.96;84.36;99807.81;4164503;28;20095;-68
2022/12/23 04:05:25;;;;;;;1.95;0.90;;;;;;;10.95;84.49;99809.56;4168055;28;20575;-69
2022/12/23 04:07:34;;;;;;;2.70;1.00;;;;;;;10.97;84.49;99817.38;4171495;28;20384;-68
2022/12/23 04:09:38;;;;;;;0.70;0.70;;;;;;;10.95;84.38;99822.56;4172141;28;20033;-68
2022/12/23 04:11:41;;;;;;;0.90;0.63;;;;;;;10.92;84.27;99826.88;4180531;28;20051;-68
2022/12/23 04:13:46;;;;;;;0.65;0.65;;;;;;;10.96;83.66;99826.03;4178430;28;20029;-69
2022/12/23 04:15:50;;;;;;;0.63;0.50;;;;;;;10.96;83.94;99821.69;4178214;28;20045;-69
2022/12/23 04:17:54;;;;;;;0.57;0.52;;;;;;;11.00;83.55;99825.19;4171515;28;20498;-68
2022/12/23 04:19:59;;;;;;;1.85;0.80;;;;;;;11.03;83.23;99826.94;4167493;28;20047;-69
2022/12/23 04:22:02;;;;;;;1.75;0.70;;;;;;;11.02;83.51;99823.44;4174914;28;20043;-69
2022/12/23 04:24:05;;;;;;;0.70;0.60;;;;;;;11.07;83.37;99824.31;4170707;28;20052;-68
2022/12/23 04:26:08;;;;;;;1.25;0.63;;;;;;;11.10;83.62;99816.53;4167120;28;20055;-68
2022/12/23 04:28:11;;;;;;;1.27;0.70;;;;;;;11.12;83.93;99819.97;4174211;28;20033;-68
2022/12/23 04:30:14;;;;;;;1.63;0.70;;;;;;;11.11;83.04;99828.69;4164257;28;20052;-68
2022/12/23 04:32:17;;;;;;;1.20;0.57;;;;;;;11.12;83.39;99832.13;4174735;28;20120;-68
2022/12/23 04:34:19;;;;;;;1.80;1.00;;;;;;;11.11;83.30;99839.09;4168906;28;20041;-68
2022/12/23 04:36:24;;;;;;;1.80;0.80;;;;;;;11.11;83.67;99846.00;4174990;28;20033;-69
2022/12/23 04:38:27;;;;;;;1.55;0.88;;;;;;;11.09;83.35;99839.94;4178455;28;20119;-70
2022/12/23 04:40:30;;;;;;;0.98;0.80;;;;;;;11.09;83.40;99834.72;4162122;28;20132;-69
2022/12/23 04:42:33;;;;;;;0.77;0.68;;;;;;;11.08;83.11;99841.69;4176131;28;20036;-68
2022/12/23 04:44:36;;;;;;;1.08;0.90;;;;;;;11.04;82.98;99841.66;4170744;28;20049;-68
2022/12/23 04:46:39;;;;;;;0.90;0.80;;;;;;;10.98;83.38;99835.59;4166678;28;20543;-68
2022/12/23 04:48:42;;;;;;;0.65;0.65;;;;;;;11.01;82.98;99832.13;4171342;28;20044;-68
2022/12/23 04:50:45;;;;;;;0.90;0.85;;;;;;;11.01;83.75;99834.72;4178856;28;20072;-67
2022/12/23 04:52:49;;;;;;;1.02;0.70;;;;;;;11.00;83.72;99839.03;4168552;28;20049;-67
2022/12/23 04:54:51;;;;;;;2.10;1.40;;;;;;;10.98;83.34;99839.88;4163427;28;20048;-68
2022/12/23 04:56:54;;;;;;;2.72;0.90;;;;;;;10.91;82.90;99844.22;4166718;28;20033;-67
2022/12/23 04:59:00;;;;;;;4.68;0.93;;;;;;;10.90;83.54;99841.63;4175727;28;20106;-67
2022/12/23 05:01:05;;;;;;;4.30;1.02;;;;;;;10.88;83.21;99843.34;4178977;28;20041;-67
2022/12/23 05:03:08;;;;;;;;;;;;;;;10.79;82.99;99844.16;4164104;28;20403;-67
2022/12/23 05:05:11;;;;;;;1.80;0.88;;;;;;;10.80;82.94;99836.38;4177966;28;19932;-67
2022/12/23 05:07:14;;;;;;;2.50;0.95;;;;;;;10.89;83.33;99834.69;4174852;28;20143;-67
2022/12/23 05:09:18;;;;;;;2.92;1.27;;;;;;;10.93;83.10;99836.44;4176243;28;20033;-67
2022/12/23 05:11:21;;;;;;;2.70;1.20;;;;;;;10.96;83.28;99846.84;4174975;28;20059;-67
2022/12/23 05:13:24;;;;;;;1.88;1.10;;;;;;;10.97;83.06;99838.19;4175732;28;20142;-67
2022/12/23 05:15:27;;;;;;;3.95;1.30;;;;;;;10.97;83.01;99833.84;4168184;28;20034;-67
2022/12/23 05:17:29;;;;;;;5.25;1.27;;;;;;;10.98;82.59;99834.69;4174575;28;20041;-67
2022/12/23 05:19:32;;;;;;;2.28;1.30;;;;;;;11.00;82.96;99840.78;4175361;28;20075;-67
2022/12/23 05:21:35;;;;;;;4.55;1.10;;;;;;;11.03;83.10;99845.13;4173938;28;20045;-68
2022/12/23 05:23:38;;;;;;;3.53;1.40;;;;;;;11.05;82.89;99830.38;4174191;28;20037;-68
2022/12/23 05:25:42;;;;;;;2.85;1.00;;;;;;;11.04;82.70;99842.53;4166470;28;20053;-68
2022/12/23 05:27:45;;;;;;;4.15;1.10;;;;;;;11.03;83.25;99846.00;4175307;28;20491;-68
2022/12/23 05:29:48;;;;;;;2.13;0.60;;;;;;;11.02;83.25;99852.03;4178351;28;20123;-67
2022/12/23 05:31:51;;;;;;;2.78;0.73;;;;;;;11.01;82.94;99855.53;4171275;28;20079;-68
2022/12/23 05:33:54;;;;;;;1.00;0.52;;;;;;;11.02;83.32;99854.66;4177734;28;20092;-68
2022/12/23 05:36:02;;;;;;;2.20;0.80;;;;;;;11.04;83.06;99850.34;4173670;28;20041;-68
2022/12/23 05:38:05;;;;;;;2.80;0.82;;;;;;;11.05;82.72;99841.66;4174092;28;20049;-68
2022/12/23 05:40:09;;;;;;;2.67;0.77;;;;;;;11.07;82.86;99847.75;4178111;28;20187;-68
2022/12/23 05:42:18;;;;;;;1.52;0.70;;;;;;;11.06;82.83;99840.78;4148686;28;20049;-68
2022/12/23 05:44:21;;;;;;;2.60;0.60;;;;;;;11.09;82.51;99837.34;4179476;28;20466;-68
2022/12/23 05:46:23;;;;;;;1.23;0.70;;;;;;;11.07;82.44;99842.53;4167655;28;20101;-68
2022/12/23 05:48:29;;;;;;;5.10;0.80;;;;;;;11.07;83.02;99846.84;4168159;28;20073;-68
2022/12/23 05:50:32;;;;;;;1.52;0.75;;;;;;;11.07;82.58;99846.84;4170782;28;20034;-68
2022/12/23 05:52:36;;;;;;;;;;;;;;;10.97;82.49;99838.19;4177278;28;20098;-68
2022/12/23 05:54:39;;;;;;;3.53;0.77;;;;;;;10.97;82.61;99844.22;4170794;28;19924;-68
2022/12/23 05:56:42;;;;;;;0.40;0.40;;;;;;;11.01;83.03;99845.13;4175888;28;20121;-68
2022/12/23 05:58:46;;;;;;;3.03;0.80;;;;;;;11.02;82.86;99844.25;4171701;28;20032;-68
2022/12/23 06:00:49;;;;;;;0.70;0.50;;;;;;;11.00;83.11;99844.25;4172028;28;20033;-68
2022/12/23 06:02:52;;;;;;;3.00;0.75;;;;;;;11.00;82.87;99846.84;4168765;28;20044;-68
2022/12/23 06:04:56;;;;;;;1.60;0.70;;;;;;;11.01;82.91;99850.34;4163580;28;20047;-68
2022/12/23 06:06:59;;;;;;;1.80;0.80;;;;;;;11.14;82.68;99841.69;4172945;28;20345;-68
2022/12/23 06:09:02;;;;;;;0.90;0.80;;;;;;;11.04;81.92;99845.13;4169948;28;20037;-66
2022/12/23 06:11:05;;;;;;;2.35;0.90;;;;;;;10.96;82.73;99836.44;4175456;28;20037;-68
2022/12/23 06:13:08;;;;;;;1.08;0.70;;;;;;;10.94;82.47;99843.38;4175126;28;20041;-67
2022/12/23 06:15:12;;;;;;;2.67;0.68;;;;;;;10.92;82.60;99845.97;4158790;28;20049;-68
2022/12/23 06:17:15;;;;;;;1.80;0.50;;;;;;;10.93;82.65;99842.50;4151617;28;20065;-67
2022/12/23 06:19:18;;;;;;;1.00;0.50;;;;;;;10.95;82.67;99847.69;4170733;28;20037;-67
2022/12/23 06:21:21;;;;;;;1.13;0.70;;;;;;;10.91;83.08;99846.81;4171558;28;20123;-67
2022/12/23 06:23:25;;;;;;;2.00;0.80;;;;;;;10.92;83.14;99839.88;4175035;28;20037;-67
2022/12/23 06:25:28;;;;;;;0.63;0.60;;;;;;;10.93;83.63;99841.63;4175374;28;20091;-67
2022/12/23 06:27:31;;;;;;;0.77;0.60;;;;;;;10.96;82.86;99846.84;4167843;28;20049;-67
2022/12/23 06:29:34;;;;;;;1.52;0.73;;;;;;;11.02;82.75;99846.84;4157006;28;20070;-67
2022/12/23 06:31:38;;;;;;;0.85;0.50;;;;;;;11.00;82.86;99856.38;4168932;28;20462;-67
2022/12/23 06:33:41;;;;;;;2.33;0.70;;;;;;;10.93;83.52;99865.03;4172960;28;20065;-67
2022/12/23 06:35:44;;;;;;;1.63;0.77;;;;;;;10.88;83.11;99858.94;4173843;28;20060;-67
2022/12/23 06:37:47;;;;;;;0.63;0.50;;;;;;;10.91;83.10;99871.97;4171420;28;20059;-68
2022/12/23 06:39:50;;;;;;;1.17;0.60;;;;;;;10.85;83.59;99872.81;4187877;28;20526;-67
2022/12/23 06:41:53;;;;;;;1.75;0.73;;;;;;;10.91;83.57;99871.97;4175431;28;20044;-67
2022/12/23 06:43:55;;;;;;;0.70;0.70;;;;;;;10.97;83.94;99874.59;4174260;28;20380;-68
2022/12/23 06:45:58;;;;;;;1.38;0.60;;;;;;;11.02;83.21;99872.84;4159935;28;20049;-67
2022/12/23 06:48:03;;;;;;;1.80;0.80;;;;;;;11.05;82.95;99883.25;4174444;28;20144;-67
2022/12/23 06:50:10;;;;;;;1.02;0.80;;;;;;;11.06;82.85;99874.59;4173389;28;20042;-67
2022/12/23 06:52:12;;;;;;;0.98;0.70;;;;;;;11.08;82.65;99877.22;4169660;28;20041;-67
2022/12/23 06:54:15;;;;;;;0.98;0.70;;;;;;;11.10;82.87;99883.31;4168295;28;20033;-67
2022/12/23 06:56:18;;;;;;;1.88;0.65;;;;;;;11.12;82.68;99887.63;4170597;28;20033;-67
2022/12/23 06:58:21;;;;;;;0.80;0.80;;;;;;;11.09;82.93;99889.38;4163226;28;20069;-67
2022/12/23 07:00:24;;;;;;;2.53;0.80;;;;;;;11.09;82.38;99890.22;4168261;28;20029;-67
2022/12/23 07:02:27;;;;;;;1.13;0.70;;;;;;;10.98;83.03;99884.09;4174942;28;20040;-67
2022/12/23 07:04:32;;;;;;;0.80;0.80;;;;;;;10.98;83.10;99885.00;4169802;28;20048;-67
2022/12/23 07:06:34;;;;;;;2.13;0.88;;;;;;;10.99;82.56;99886.75;4173885;28;20098;-67
2022/12/23 07:08:37;;;;;;;3.92;0.80;;;;;;;10.99;82.80;99886.75;4187406;28;20581;-67
2022/12/23 07:10:40;;;;;;;0.88;0.88;;;;;;;11.05;82.71;99885.88;4173202;28;20041;-67
2022/12/23 07:12:43;;;;;;;1.85;0.70;;;;;;;11.03;82.26;99887.59;4175501;28;20049;-67
2022/12/23 07:14:52;;;;;;;2.15;0.70;;;;;;;10.98;82.14;99887.59;4171997;28;20076;-67
2022/12/23 07:16:55;;;;;;;0.77;0.63;;;;;;;10.98;82.23;99877.19;4170657;28;20128;-67
2022/12/23 07:18:58;;;;;;;0.68;0.63;;;;;;;11.06;81.63;99874.59;4173926;28;20056;-67
2022/12/23 07:21:03;;;;;;;1.15;0.75;;;;;;;11.07;81.75;99865.94;4175942;28;20055;-67
2022/12/23 07:23:06;;;;;;;2.42;0.63;;;;;;;11.08;82.40;99865.09;4170995;28;20416;-67
2022/12/23 07:25:09;;;;;;;0.68;0.68;;;;;;;11.07;82.29;99865.06;4156186;28;20049;-68
2022/12/23 07:27:12;;;;;;;1.10;0.60;;;;;;;11.05;81.64;99866.81;4175325;28;20127;-68
2022/12/23 07:29:16;;;;;;;5.07;0.70;;;;;;;11.03;81.89;99859.00;4162549;28;20553;-67
2022/12/23 07:31:18;;;;;;;2.28;0.82;;;;;;;11.02;82.31;99857.25;4180200;28;20395;-67
2022/12/23 07:33:21;;;;;;;1.50;0.65;;;;;;;10.93;81.54;99857.22;4181261;28;20041;-67
2022/12/23 07:35:24;;;;;;;1.15;0.47;;;;;;;10.91;81.83;99856.38;4181311;28;20136;-67
2022/12/23 07:37:29;;;;;;;0.50;0.50;;;;;;;10.93;82.55;99858.09;4169815;28;20037;-67
2022/12/23 07:39:32;;;;;;;2.75;0.57;;;;;;;10.91;82.52;99858.97;4173108;28;20041;-68
2022/12/23 07:41:34;;;;;;;0.85;0.68;;;;;;;10.82;82.65;99881.47;4181100;28;20033;-68
2022/12/23 07:43:41;;;;;;;1.05;0.60;;;;;;;10.77;82.78;99892.72;4179337;28;20384;-68
2022/12/23 07:45:44;;;;;;;1.35;0.52;;;;;;;10.76;82.94;99902.25;4180993;28;20556;-68
2022/12/23 07:47:46;;;;;;;0.85;0.80;;;;;;;10.74;82.81;99903.97;4181154;28;20047;-68
2022/12/23 07:49:49;;;;;;;2.00;1.13;;;;;;;10.71;82.71;99903.09;4178770;28;20046;-68
2022/12/23 07:51:52;;;;;;;4.28;0.98;;;;;;;10.73;82.66;99897.03;4179868;28;20041;-68
2022/12/23 07:53:57;;;;;;;2.75;1.00;;;;;;;10.76;82.05;99906.56;4177123;28;20053;-68
2022/12/23 07:56:00;;;;;;;4.80;1.38;;;;;;;10.80;82.11;99897.91;4164188;28;20385;-69
2022/12/23 07:58:03;;;;;;;4.53;1.42;;;;;;;10.86;82.36;99900.53;4163399;28;20045;-68
2022/12/23 08:00:10;;;;;;;2.83;1.45;;;;;;;10.90;81.93;99902.28;4167078;28;20045;-68
2022/12/23 08:02:16;;;;;;;3.83;1.23;;;;;;;10.94;82.40;99890.19;4180951;28;20040;-68
2022/12/23 08:04:19;;;;;;;6.15;1.40;;;;;;;10.99;81.46;99888.44;4179533;28;20422;-68
2022/12/23 08:06:22;;;;;;;1.98;1.05;;;;;;;11.05;81.59;99890.22;4180921;28;20451;-68
2022/12/23 08:08:25;;;;;;;3.40;1.02;;;;;;;11.07;82.24;99897.16;4178812;28;20597;-68
2022/12/23 08:10:29;;;;;;;1.98;1.35;;;;;;;11.08;81.71;99891.09;4179405;28;20139;-68
2022/12/23 08:12:32;;;;;;;3.70;1.35;;;;;;;11.14;81.62;99895.44;4160328;28;20068;-68
2022/12/23 08:14:35;;;;;;;4.65;1.67;;;;;;;11.11;82.24;99909.31;4171064;28;20037;-68
2022/12/23 08:16:38;;;;;;;4.88;1.23;;;;;;;11.09;81.76;99913.63;4171657;28;20398;-67
2022/12/23 08:18:46;;;;;;;8.98;1.75;;;;;;;11.10;81.15;99907.56;4169113;28;20041;-67
2022/12/23 08:20:54;;;;;;;1.92;0.80;;;;;;;11.16;81.52;99911.94;4147996;28;20045;-67
2022/12/23 08:22:57;;;;;;;4.50;1.30;;;;;;;11.18;81.63;99895.47;4183198;28;20032;-67
2022/12/23 08:24:59;;;;;;;2.78;1.70;;;;;;;11.22;81.41;99891.13;4168938;28;20513;-67
2022/12/23 08:27:04;;;;;;;2.97;0.80;;;;;;;11.26;81.55;99892.03;4170296;28;20103;-67
2022/12/23 08:29:06;;;;;;;2.30;0.82;;;;;;;11.28;81.41;99883.31;4171273;28;20044;-67
2022/12/23 08:31:11;;;;;;;2.28;0.90;;;;;;;11.32;80.84;99879.88;4149487;28;20037;-66
2022/12/23 08:33:14;;;;;;;3.60;1.00;;;;;;;11.35;81.13;99876.41;4167409;28;20045;-67
2022/12/23 08:35:17;;;;;;;2.78;1.00;;;;;;;11.37;80.60;99885.06;4170105;28;20124;-67
2022/12/23 08:37:19;;;;;;;3.33;0.80;;;;;;;11.33;80.53;99889.41;4169875;28;20037;-67
2022/12/23 08:39:22;;;;;;;3.58;1.00;;;;;;;11.36;81.23;99888.56;4173934;28;20041;-67
2022/12/23 08:41:27;;;;;;;2.42;1.10;;;;;;;11.39;80.86;99898.97;4176731;28;20044;-67
2022/12/23 08:43:32;;;;;;;2.53;0.90;;;;;;;11.38;81.10;99893.78;4167055;28;20123;-67
2022/12/23 08:45:38;;;;;;;3.78;1.02;;;;;;;11.38;80.92;99896.38;4173491;28;20029;-67
2022/12/23 08:47:41;;;;;;;4.82;1.08;;;;;;;11.42;80.94;99903.28;4163851;28;20043;-68
2022/12/23 08:49:44;;;;;;;4.05;1.00;;;;;;;11.42;80.71;99898.09;4170866;28;20036;-68
2022/12/23 08:51:47;;;;;;;1.73;0.90;;;;;;;11.42;80.97;99904.19;4165924;28;20179;-68
2022/12/23 08:53:50;;;;;;;1.90;1.05;;;;;;;11.42;81.20;99900.69;4174293;28;20041;-68
2022/12/23 08:56:03;;;;;;;3.75;0.90;;;;;;;11.44;80.69;99899.84;4165630;28;20459;-68
2022/12/23 08:58:07;;;;;;;1.05;0.68;;;;;;;11.45;81.11;99912.00;4177563;28;20041;-68
2022/12/23 09:00:12;;;;;;;4.25;0.75;;;;;;;11.42;80.81;99914.59;4170063;28;20568;-69
2022/12/23 09:02:15;;;;;;;2.28;0.95;;;;;;;11.41;80.93;99906.78;4170791;28;20088;-69
2022/12/23 09:04:18;;;;;;;0.68;0.55;;;;;;;11.43;81.06;99910.25;4164936;28;20037;-68
2022/12/23 09:06:23;;;;;;;0.60;0.60;;;;;;;11.47;80.51;99918.06;4176345;28;20411;-69
2022/12/23 09:08:32;;;;;;;1.27;0.90;;;;;;;11.47;80.88;99918.06;4172917;28;20041;-69
2022/12/23 09:10:39;;;;;;;1.92;0.88;;;;;;;11.46;80.48;99905.94;4170284;28;20451;-68
2022/12/23 09:12:42;;;;;;;0.85;0.68;;;;;;;11.49;81.21;99894.63;4176446;28;20036;-69
2022/12/23 09:14:47;;;;;;;2.13;0.85;;;;;;;11.50;80.73;99891.16;4167911;28;20041;-69
2022/12/23 09:16:51;;;;;;;1.00;0.60;;;;;;;11.52;81.08;99895.53;4167642;28;20510;-68
2022/12/23 09:18:54;;;;;;;1.00;0.55;;;;;;;11.57;80.79;99902.47;4170456;28;20051;-69
2022/12/23 09:20:58;;;;;;;0.77;0.60;;;;;;;11.51;80.74;99898.13;4158034;28;20056;-69
2022/12/23 09:23:02;;;;;;;0.93;0.65;;;;;;;11.52;80.59;99894.63;4132397;28;20469;-68
2022/12/23 09:25:05;;;;;;;0.70;0.68;;;;;;;11.51;80.63;99903.34;4173037;28;20121;-68
2022/12/23 09:27:08;;;;;;;1.08;0.75;;;;;;;11.51;80.99;99906.78;4166912;28;20037;-69
2022/12/23 09:29:11;;;;;;;1.48;1.05;;;;;;;11.56;81.13;99905.94;4180454;28;20040;-68
2022/12/23 09:31:14;;;;;;;3.05;0.82;;;;;;;11.58;80.74;99909.41;4175813;28;20075;-68
2022/12/23 09:33:19;;;;;;;1.38;0.88;;;;;;;11.62;80.45;99908.53;4176428;28;20033;-68
2022/12/23 09:35:22;;;;;;;0.73;0.70;;;;;;;11.62;81.08;99893.81;4167160;28;20042;-68
2022/12/23 09:37:25;;;;;;;2.35;0.70;;;;;;;11.66;81.17;99899.88;4170015;28;20406;-68
2022/12/23 09:39:28;;;;;;;0.80;0.80;;;;;;;11.67;80.75;99897.25;4172075;28;20048;-68
2022/12/23 09:41:53;;;;;;;3.90;0.70;;;;;;;11.64;80.71;99886.00;4171201;28;20069;-68
2022/12/23 09:44:11;;;;;;;1.83;0.70;;;;;;;11.61;81.04;99883.34;4171271;28;20487;-69
2022/12/23 09:46:18;;;;;;;3.30;1.48;;;;;;;11.63;81.10;99879.03;4173177;28;20095;-68
2022/12/23 09:48:26;;;;;;;0.90;0.73;;;;;;;11.62;80.94;99874.69;4175779;28;20037;-68
2022/12/23 09:50:34;;;;;;;1.05;0.50;;;;;;;11.62;81.18;99885.09;4170384;28;20086;-68
2022/12/23 09:52:44;;;;;;;3.88;0.90;;;;;;;11.64;81.74;99886.00;4169890;28;20026;-69
2022/12/23 09:54:51;;;;;;;1.20;0.80;;;;;;;11.63;81.74;99881.66;4173394;28;20046;-68
2022/12/23 09:56:58;;;;;;;1.42;0.70;;;;;;;11.65;81.56;99879.91;4169900;28;20127;-68
2022/12/23 09:59:12;;;;;;;2.35;1.10;;;;;;;11.68;81.65;99886.00;4173294;28;20041;-68
2022/12/23 10:01:22;;;;;;;1.42;0.80;;;;;;;11.71;81.74;99874.72;4170827;28;20041;-68
2022/12/23 10:03:34;;;;;;;1.92;1.35;;;;;;;11.76;81.63;99866.91;4169930;28;20545;-68
2022/12/23 10:05:50;;;;;;;1.33;1.00;;;;;;;11.73;81.43;99862.56;4170906;28;20063;-68
2022/12/23 10:07:56;;;;;;;1.35;0.93;;;;;;;11.73;81.76;99862.56;4168444;28;20128;-68
2022/12/23 10:10:07;;;;;;;2.42;1.10;;;;;;;11.77;81.29;99860.78;4171896;28;20068;-68
2022/12/23 10:12:17;;;;;;;1.15;0.90;;;;;;;11.78;81.15;99854.72;4169112;28;20045;-68
2022/12/23 10:14:31;;;;;;;3.28;0.75;;;;;;;11.77;81.31;99853.88;4167850;28;20045;-69
2022/12/23 10:16:41;;;;;;;1.45;1.00;;;;;;;11.80;81.19;99858.22;4168573;28;20190;-67
2022/12/23 10:18:53;;;;;;;2.78;1.00;;;;;;;11.82;81.44;99857.31;4174566;28;20033;-68
2022/12/23 10:21:02;;;;;;;3.55;1.40;;;;;;;11.85;81.59;99849.50;4176592;28;20458;-67